Aviation Digital Data Service (ADDS)

Output produced by TAFs form (1052 UTC 16 July 2018)
found at http://www.aviationweather.gov/adds/tafs/
 
METAR text: ZSPD 161030Z 15007MPS CAVOK 28/24 Q1009 NOSIG
Conditions at: ZSPD (SHANGHAI/PUDONG , CN) observed 1030 UTC 16 July 2018
Temperature: 28.0°C (82°F)
Dewpoint: 24.0°C (75°F) [RH = 79%]
Pressure (altimeter): 29.79 inches Hg (1009.0 mb)
Winds: from the SSE (150 degrees) at 16 MPH (14 knots; 7.3 m/s)
Visibility: 6 or more miles (10+ km)
Ceiling: ceiling and visibility are OK
Clouds: unknown
Weather: no significant weather observed at this time

Forecast for: ZSPD (SHANGHAI/PUDONG , CN)
Text: TAF ZSPD 160926Z 1612/1712 14005MPS 6000 SCT020 TX33/1706Z TN26/1621Z
Forecast period: 1200 UTC 16 July 2018 to 1200 UTC 17 July 2018
Forecast type: FROM: standard forecast or significant change
Winds: from the SE (140 degrees) at 12 MPH (10 knots; 5.2 m/s)
Visibility: 4 miles (6 km)
Clouds: scattered clouds at 2000 feet AGL
Weather: no significant weather forecast for this period